Time;durP1;ratioP1;P1;durP2;ratioP2;P2;SDS_P1;SDS_P2;PMS_P1;PMS_P2;Temp;Humidity;BMP_temperature;BMP_pressure;BME280_temperature;BME280_humidity;BME280_pressure;Samples;Min_cycle;Max_cycle;Signal;HPM_P1;HPM_P2
2023/03/18 00:01:03;;;;;;;4.20;3.13;;;7.60;99.90;;;;;;5072726;28;20181;-81
2023/03/18 00:03:33;;;;;;;5.07;3.43;;;7.60;99.90;;;;;;5074310;28;20723;-81
2023/03/18 00:06:09;;;;;;;6.20;3.50;;;7.70;99.90;;;;;;5074503;28;20199;-80
2023/03/18 00:08:35;;;;;;;4.30;3.03;;;7.70;99.90;;;;;;5074109;28;20170;-80
2023/03/18 00:11:01;;;;;;;3.97;3.17;;;7.70;99.90;;;;;;5074115;28;20523;-80
2023/03/18 00:13:27;;;;;;;5.97;2.90;;;7.60;99.90;;;;;;5073012;28;20283;-80
2023/03/18 00:15:53;;;;;;;4.07;2.60;;;7.60;99.90;;;;;;5073890;28;20207;-80
2023/03/18 00:18:19;;;;;;;3.03;2.60;;;7.60;99.90;;;;;;5072734;28;20222;-80
2023/03/18 00:20:44;;;;;;;5.27;2.70;;;7.60;99.90;;;;;;5073730;28;20228;-81
2023/03/18 00:23:10;;;;;;;3.20;2.90;;;7.60;99.90;;;;;;5072882;28;20195;-81
2023/03/18 00:25:37;;;;;;;3.53;3.00;;;7.60;99.90;;;;;;5073893;28;20629;-80
2023/03/18 00:28:05;;;;;;;5.43;3.00;;;7.60;99.90;;;;;;5073943;28;20228;-80
2023/03/18 00:30:31;;;;;;;3.37;2.80;;;7.50;99.90;;;;;;5073883;28;20179;-81
2023/03/18 00:32:57;;;;;;;3.30;3.00;;;7.50;99.90;;;;;;5072797;28;20208;-81
2023/03/18 00:35:26;;;;;;;3.37;2.73;;;7.60;99.90;;;;;;5072498;28;20209;-80
2023/03/18 00:37:53;;;;;;;3.97;2.97;;;7.60;99.90;;;;;;5074068;28;20580;-80
2023/03/18 00:40:26;;;;;;;3.53;3.10;;;7.50;99.90;;;;;;5072144;28;20178;-81
2023/03/18 00:42:56;;;;;;;3.70;2.93;;;7.50;99.90;;;;;;5073527;28;20592;-81
2023/03/18 00:45:23;;;;;;;3.57;3.10;;;7.50;99.90;;;;;;5072791;28;20194;-81
2023/03/18 00:47:49;;;;;;;3.73;3.10;;;7.50;99.90;;;;;;5072777;28;20171;-81
2023/03/18 00:50:15;;;;;;;4.73;3.57;;;7.50;99.90;;;;;;5073503;28;20171;-80
2023/03/18 00:52:41;;;;;;;4.33;3.20;;;7.50;99.90;;;;;;5071840;28;20181;-80
2023/03/18 00:55:07;;;;;;;4.60;3.13;;;7.50;99.90;;;;;;5073472;28;20166;-80
2023/03/18 00:57:34;;;;;;;3.30;3.00;;;7.50;99.90;;;;;;5073853;28;20292;-82
2023/03/18 01:00:00;;;;;;;3.47;2.87;;;7.50;99.90;;;;;;5073551;28;20173;-81
2023/03/18 01:02:27;;;;;;;4.83;3.03;;;7.50;99.90;;;;;;5073881;28;20217;-80
2023/03/18 01:04:53;;;;;;;5.20;2.80;;;7.50;99.90;;;;;;5072001;28;20260;-80
2023/03/18 01:07:18;;;;;;;2.77;2.47;;;7.60;99.90;;;;;;5071997;28;20594;-81
2023/03/18 01:09:44;;;;;;;3.27;2.70;;;7.60;99.90;;;;;;5074726;28;20177;-81
2023/03/18 01:12:10;;;;;;;3.67;3.20;;;7.70;99.90;;;;;;5077315;28;20171;-80
2023/03/18 01:14:37;;;;;;;4.47;3.00;;;7.70;99.90;;;;;;5075887;28;20173;-80
2023/03/18 01:17:04;;;;;;;3.53;2.67;;;7.70;99.90;;;;;;5076882;28;20190;-80
2023/03/18 01:19:30;;;;;;;3.27;2.80;;;7.80;99.90;;;;;;5075861;28;20185;-83
2023/03/18 01:21:56;;;;;;;5.80;3.30;;;7.90;99.90;;;;;;5077213;28;20283;-81
2023/03/18 01:24:22;;;;;;;3.30;3.00;;;7.90;99.90;;;;;;5076701;28;20171;-81
2023/03/18 01:26:48;;;;;;;4.77;2.80;;;8.00;99.90;;;;;;5077022;28;20196;-80
2023/03/18 01:29:13;;;;;;;3.93;3.10;;;8.00;99.90;;;;;;5075521;28;20165;-80
2023/03/18 01:31:39;;;;;;;3.30;2.63;;;8.10;99.90;;;;;;5075283;28;20584;-81
2023/03/18 01:34:06;;;;;;;4.20;2.60;;;8.10;99.90;;;;;;5075759;28;20557;-80
2023/03/18 01:36:32;;;;;;;3.90;2.47;;;8.10;99.90;;;;;;5076566;28;20259;-81
2023/03/18 01:38:58;;;;;;;3.50;2.43;;;8.20;99.90;;;;;;5075763;28;20180;-81
2023/03/18 01:41:27;;;;;;;2.63;2.43;;;8.20;99.90;;;;;;5075277;28;20247;-81
2023/03/18 01:43:54;;;;;;;3.40;2.20;;;8.40;99.90;;;;;;5077133;28;20649;-80
2023/03/18 01:46:39;;;;;;;2.90;2.27;;;8.50;99.90;;;;;;5076546;28;20192;-81
2023/03/18 01:49:12;;;;;;;3.57;2.40;;;8.50;99.90;;;;;;5076982;28;20680;-80
2023/03/18 01:51:40;;;;;;;4.17;2.10;;;8.50;99.90;;;;;;5076408;28;20172;-81
2023/03/18 01:54:07;;;;;;;4.30;1.97;;;8.50;99.90;;;;;;5076962;28;20252;-80
2023/03/18 01:56:35;;;;;;;3.40;2.10;;;8.50;99.90;;;;;;5075416;28;20190;-80
2023/03/18 01:59:02;;;;;;;3.23;2.50;;;8.60;99.90;;;;;;5076476;28;20245;-80
2023/03/18 02:01:38;;;;;;;5.17;2.40;;;8.80;99.90;;;;;;5076319;28;20685;-81
2023/03/18 02:04:06;;;;;;;5.20;2.80;;;8.90;99.90;;;;;;5076372;28;20176;-80
2023/03/18 02:06:32;;;;;;;4.07;2.80;;;8.90;99.90;;;;;;5075966;28;20183;-80
2023/03/18 02:08:59;;;;;;;2.90;2.30;;;8.90;99.90;;;;;;5075026;28;20194;-80
2023/03/18 02:11:25;;;;;;;3.10;2.30;;;8.90;99.90;;;;;;5074771;28;20169;-81
2023/03/18 02:13:51;;;;;;;4.33;2.40;;;8.90;99.90;;;;;;5076158;28;20197;-83
2023/03/18 02:16:23;;;;;;;3.00;2.13;;;8.90;99.90;;;;;;5074885;28;20641;-81
2023/03/18 02:19:00;;;;;;;3.50;2.50;;;9.00;99.90;;;;;;5074841;28;20195;-83
2023/03/18 02:21:46;;;;;;;4.13;3.20;;;9.10;99.90;;;;;;5074681;28;20188;-80
2023/03/18 02:24:46;;;;;;;5.20;3.33;;;9.10;99.90;;;;;;5075519;28;20207;-81
2023/03/18 02:27:17;;;;;;;5.60;2.90;;;9.20;99.90;;;;;;5068450;28;20199;-80
2023/03/18 02:29:44;;;;;;;4.70;2.93;;;9.20;99.90;;;;;;5075942;28;20173;-81
2023/03/18 02:32:12;;;;;;;6.20;3.47;;;9.20;99.90;;;;;;5074492;28;20176;-81
2023/03/18 02:34:39;;;;;;;4.57;3.00;;;9.20;99.90;;;;;;5075821;28;20182;-82
2023/03/18 02:37:06;;;;;;;4.73;2.67;;;9.30;99.90;;;;;;5083584;22;20223;-78
2023/03/18 02:39:32;;;;;;;4.27;2.60;;;9.40;99.90;;;;;;5052201;28;20203;-78
2023/03/18 02:41:58;;;;;;;3.37;2.83;;;9.50;99.90;;;;;;5051874;28;20266;-78
2023/03/18 02:44:24;;;;;;;4.33;2.93;;;9.40;99.90;;;;;;5052771;28;20179;-79
2023/03/18 02:46:59;;;;;;;4.10;2.80;;;9.40;99.90;;;;;;5052357;28;20192;-80
2023/03/18 02:49:28;;;;;;;4.50;2.50;;;9.50;99.90;;;;;;5052240;28;20169;-78
2023/03/18 02:51:55;;;;;;;4.07;2.43;;;9.50;99.90;;;;;;5053228;28;20197;-77
2023/03/18 02:54:27;;;;;;;4.80;2.83;;;9.60;99.90;;;;;;5051879;28;20177;-79
2023/03/18 02:56:53;;;;;;;4.80;2.70;;;9.60;99.90;;;;;;5053228;28;20355;-79
2023/03/18 02:59:20;;;;;;;3.70;2.57;;;9.60;99.90;;;;;;5053371;28;20205;-79
2023/03/18 03:01:49;;;;;;;3.83;2.63;;;9.60;99.90;;;;;;5051551;28;20238;-78
2023/03/18 03:04:15;;;;;;;3.13;2.50;;;9.60;99.90;;;;;;5052888;28;20631;-79
2023/03/18 03:06:42;;;;;;;3.80;2.73;;;9.60;99.90;;;;;;5051574;28;20190;-78
2023/03/18 03:09:10;;;;;;;6.03;2.60;;;9.50;99.90;;;;;;5051658;28;20546;-79
2023/03/18 03:11:36;;;;;;;6.10;2.80;;;9.50;99.90;;;;;;5052961;28;20166;-78
2023/03/18 03:14:02;;;;;;;3.67;2.47;;;9.50;99.90;;;;;;5051644;28;20227;-79
2023/03/18 03:16:28;;;;;;;4.63;2.90;;;9.50;99.90;;;;;;5052692;28;20336;-79
2023/03/18 03:18:54;;;;;;;3.97;2.40;;;9.50;99.90;;;;;;5051562;28;20257;-79
2023/03/18 03:21:19;;;;;;;4.27;2.70;;;9.50;99.90;;;;;;5051230;28;20178;-78
2023/03/18 03:23:46;;;;;;;4.40;2.60;;;9.40;99.90;;;;;;5052914;28;20274;-80
2023/03/18 03:26:12;;;;;;;3.17;2.30;;;9.40;99.90;;;;;;5052972;28;20608;-79
2023/03/18 03:28:38;;;;;;;3.37;2.60;;;9.40;99.90;;;;;;5051450;28;20209;-79
2023/03/18 03:31:05;;;;;;;4.00;2.20;;;9.40;99.90;;;;;;5052017;28;20180;-79
2023/03/18 03:33:32;;;;;;;3.13;2.50;;;9.40;99.90;;;;;;5051367;28;20186;-78
2023/03/18 03:35:58;;;;;;;3.10;2.30;;;9.50;99.90;;;;;;5052741;28;20740;-79
2023/03/18 03:38:24;;;;;;;3.63;2.40;;;9.50;99.90;;;;;;5052643;28;20178;-79
2023/03/18 03:40:50;;;;;;;4.60;2.40;;;9.60;99.90;;;;;;5052520;28;20177;-79
2023/03/18 03:43:16;;;;;;;4.30;2.33;;;9.50;99.90;;;;;;5053348;28;20201;-79
2023/03/18 03:45:42;;;;;;;3.40;2.37;;;9.60;99.90;;;;;;5052293;28;20727;-80
2023/03/18 03:48:08;;;;;;;3.80;2.20;;;9.70;99.90;;;;;;5051952;28;20181;-80
2023/03/18 03:50:35;;;;;;;3.83;2.30;;;9.60;99.90;;;;;;5052788;28;20255;-80
2023/03/18 03:53:02;;;;;;;4.47;2.40;;;9.70;99.90;;;;;;5053446;28;20168;-80
2023/03/18 03:55:28;;;;;;;3.83;2.33;;;9.70;99.90;;;;;;5052092;28;20269;-80
2023/03/18 03:57:55;;;;;;;4.67;2.40;;;9.60;99.90;;;;;;5051825;28;20211;-80
2023/03/18 04:00:22;;;;;;;4.50;2.40;;;9.60;99.90;;;;;;5053011;28;20173;-81
2023/03/18 04:02:50;;;;;;;2.47;2.10;;;9.60;99.90;;;;;;5052618;28;20205;-80
2023/03/18 04:05:17;;;;;;;4.80;2.50;;;9.60;99.90;;;;;;5052616;28;20177;-80
2023/03/18 04:07:44;;;;;;;3.27;2.97;;;9.60;99.90;;;;;;5052632;28;20177;-82
2023/03/18 04:10:16;;;;;;;5.53;2.60;;;9.60;99.90;;;;;;5052823;28;20188;-80
2023/03/18 04:12:44;;;;;;;4.43;2.30;;;9.60;99.90;;;;;;5051415;28;20215;-80
2023/03/18 04:15:12;;;;;;;4.23;2.70;;;9.50;99.90;;;;;;5049509;28;20181;-80
2023/03/18 04:17:39;;;;;;;3.70;2.30;;;9.50;99.90;;;;;;5052938;28;20197;-80
2023/03/18 04:20:05;;;;;;;5.60;2.30;;;9.50;99.90;;;;;;5052762;28;20269;-80
2023/03/18 04:22:31;;;;;;;7.57;2.67;;;9.50;99.90;;;;;;5051351;28;20275;-80
2023/03/18 04:24:57;;;;;;;4.30;2.73;;;9.50;99.90;;;;;;5051420;28;20178;-80
2023/03/18 04:27:23;;;;;;;3.93;2.27;;;9.50;99.90;;;;;;5052776;28;20185;-80
2023/03/18 04:29:49;;;;;;;4.57;2.33;;;9.50;99.90;;;;;;5050217;28;20184;-80
2023/03/18 04:32:14;;;;;;;5.10;2.57;;;9.40;99.90;;;;;;5050925;28;20272;-80
2023/03/18 04:34:40;;;;;;;4.77;2.73;;;9.40;99.90;;;;;;5051715;28;20807;-81
2023/03/18 04:37:07;;;;;;;2.93;2.43;;;9.30;99.90;;;;;;5051221;28;20216;-80
2023/03/18 04:39:33;;;;;;;3.43;2.50;;;9.30;99.90;;;;;;5051400;28;20182;-80
2023/03/18 04:41:58;;;;;;;4.97;2.70;;;9.20;99.90;;;;;;5051453;28;20757;-82
2023/03/18 04:44:24;;;;;;;4.13;2.50;;;9.20;99.90;;;;;;5053455;28;20648;-80
2023/03/18 04:46:52;;;;;;;3.80;2.57;;;9.20;99.90;;;;;;5056542;28;20673;-80
2023/03/18 04:49:18;;;;;;;3.80;2.70;;;9.20;99.90;;;;;;5055386;28;20219;-80
2023/03/18 04:51:44;;;;;;;3.57;2.10;;;9.10;99.90;;;;;;5056593;28;20173;-80
2023/03/18 04:54:11;;;;;;;5.87;2.50;;;9.10;99.90;;;;;;5056444;28;20174;-80
2023/03/18 04:56:38;;;;;;;3.87;2.57;;;9.00;99.90;;;;;;5055250;28;20228;-80
2023/03/18 04:59:04;;;;;;;4.57;2.50;;;9.00;99.90;;;;;;5055148;28;20191;-81
2023/03/18 05:01:30;;;;;;;4.77;2.37;;;9.00;99.90;;;;;;5054681;28;20668;-80
2023/03/18 05:03:56;;;;;;;4.63;2.30;;;9.10;99.90;;;;;;5056083;28;20188;-81
2023/03/18 05:06:25;;;;;;;6.17;2.40;;;9.00;99.90;;;;;;5055894;28;20557;-81
2023/03/18 05:08:51;;;;;;;3.53;2.37;;;9.00;99.90;;;;;;5054635;28;20173;-81
2023/03/18 05:11:18;;;;;;;3.93;2.47;;;9.00;99.90;;;;;;5054479;28;20187;-81
2023/03/18 05:13:43;;;;;;;4.23;2.60;;;8.90;99.90;;;;;;5054435;28;20704;-82
2023/03/18 05:16:09;;;;;;;4.43;2.90;;;8.90;99.90;;;;;;5054379;28;20235;-82
2023/03/18 05:18:36;;;;;;;4.13;2.70;;;9.00;99.90;;;;;;5054806;28;20227;-85
2023/03/18 05:21:02;;;;;;;4.60;2.63;;;8.90;99.90;;;;;;5057017;28;20260;-86
2023/03/18 05:23:28;;;;;;;2.53;2.03;;;9.00;99.90;;;;;;5055393;28;20359;-83
2023/03/18 05:25:54;;;;;;;6.97;2.17;;;9.10;99.90;;;;;;5057541;28;20193;-83
2023/03/18 05:28:20;;;;;;;4.00;2.53;;;9.40;99.90;;;;;;5055376;28;20174;-83
2023/03/18 05:30:46;;;;;;;3.03;2.40;;;9.80;99.90;;;;;;5055820;28;20166;-82
2023/03/18 05:33:12;;;;;;;4.07;2.30;;;10.00;99.90;;;;;;5057007;28;20180;-85
2023/03/18 05:35:38;;;;;;;2.93;2.30;;;10.20;99.90;;;;;;5055036;28;20194;-85
2023/03/18 05:38:06;;;;;;;3.23;2.50;;;10.30;99.90;;;;;;5058900;28;20533;-85
2023/03/18 05:40:32;;;;;;;4.23;2.53;;;10.30;99.90;;;;;;5057722;28;20176;-82
2023/03/18 05:42:58;;;;;;;4.67;2.50;;;10.20;99.90;;;;;;5056945;28;20569;-84
2023/03/18 05:45:24;;;;;;;3.77;2.90;;;10.20;99.90;;;;;;5056450;28;20177;-84
2023/03/18 05:47:50;;;;;;;3.40;2.47;;;10.10;99.90;;;;;;5056737;28;20174;-83
2023/03/18 05:50:29;;;;;;;7.30;3.37;;;9.70;99.90;;;;;;5057357;28;20247;-84
2023/03/18 05:52:55;;;;;;;5.23;3.10;;;9.50;99.90;;;;;;5056954;28;20177;-84
2023/03/18 05:55:22;;;;;;;3.90;2.70;;;9.20;99.90;;;;;;5056567;28;20585;-84
2023/03/18 05:57:48;;;;;;;4.37;2.90;;;9.10;99.90;;;;;;5057201;28;20207;-84
2023/03/18 06:00:14;;;;;;;4.30;3.10;;;9.00;99.90;;;;;;5055900;28;20243;-83
2023/03/18 06:02:40;;;;;;;5.93;3.03;;;8.80;99.90;;;;;;5054818;28;20216;-85
2023/03/18 06:05:06;;;;;;;6.93;3.57;;;8.70;99.90;;;;;;5054967;28;20176;-83
2023/03/18 06:07:31;;;;;;;5.37;3.93;;;8.70;99.90;;;;;;5054548;28;20193;-83
2023/03/18 06:09:57;;;;;;;6.53;3.67;;;8.70;99.90;;;;;;5054637;28;20180;-84
2023/03/18 06:12:26;;;;;;;3.80;2.90;;;8.70;99.90;;;;;;5055609;28;20187;-85
2023/03/18 06:14:52;;;;;;;4.27;3.00;;;8.60;99.90;;;;;;5054635;28;20180;-84
2023/03/18 06:17:19;;;;;;;5.03;3.50;;;8.60;99.90;;;;;;5055193;28;20203;-85
2023/03/18 06:19:44;;;;;;;4.53;3.23;;;8.60;99.90;;;;;;5056437;28;20219;-85
2023/03/18 06:22:11;;;;;;;5.97;3.10;;;8.60;99.90;;;;;;5056605;28;20205;-84
2023/03/18 06:24:36;;;;;;;4.57;2.90;;;8.60;99.90;;;;;;5058597;28;20169;-86
2023/03/18 06:27:02;;;;;;;3.63;3.10;;;8.60;99.90;;;;;;5056912;28;20201;-83
2023/03/18 06:29:28;;;;;;;6.47;2.97;;;8.60;99.90;;;;;;5057916;28;20237;-84
2023/03/18 06:31:54;;;;;;;4.33;3.03;;;8.70;99.90;;;;;;5059287;28;20175;-83
2023/03/18 06:34:20;;;;;;;5.00;2.70;;;8.80;99.90;;;;;;5060204;28;20572;-83
2023/03/18 06:36:45;;;;;;;3.63;2.70;;;8.90;99.90;;;;;;5059525;28;20211;-84
2023/03/18 06:39:11;;;;;;;3.50;2.37;;;9.00;99.90;;;;;;5060581;28;20185;-83
2023/03/18 06:41:37;;;;;;;6.13;3.17;;;9.20;99.90;;;;;;5059552;28;20184;-83
2023/03/18 06:44:03;;;;;;;4.97;2.80;;;9.30;99.90;;;;;;5054034;28;20553;-83
2023/03/18 06:46:29;;;;;;;4.67;2.97;;;9.30;99.90;;;;;;5052459;28;20191;-84
2023/03/18 06:48:54;;;;;;;3.43;2.80;;;9.20;99.90;;;;;;5053929;28;20252;-84
2023/03/18 06:51:20;;;;;;;5.20;3.23;;;9.20;99.90;;;;;;5053543;28;20223;-84
2023/03/18 06:53:46;;;;;;;4.70;2.87;;;9.20;99.90;;;;;;5053630;28;20276;-84
2023/03/18 06:56:14;;;;;;;3.57;2.70;;;9.20;99.90;;;;;;5054047;28;20599;-85
2023/03/18 06:58:40;;;;;;;3.20;2.50;;;9.20;99.90;;;;;;5053339;28;20183;-90
2023/03/18 07:01:07;;;;;;;4.37;3.20;;;9.30;99.90;;;;;;5053533;28;20177;-86
2023/03/18 07:03:33;;;;;;;4.80;3.00;;;9.30;99.90;;;;;;5051943;28;20202;-88
2023/03/18 07:05:58;;;;;;;3.93;2.77;;;9.40;99.90;;;;;;5051587;28;20695;-90
2023/03/18 07:08:24;;;;;;;3.60;2.90;;;9.40;99.90;;;;;;5053128;28;20174;-89
2023/03/18 07:10:53;;;;;;;4.67;2.90;;;9.40;99.90;;;;;;5052488;28;20255;-87
2023/03/18 07:13:19;;;;;;;3.13;2.50;;;9.50;99.90;;;;;;5052418;28;20170;-87
2023/03/18 07:15:45;;;;;;;3.13;2.70;;;9.50;99.90;;;;;;5053179;28;20200;-84
2023/03/18 07:18:11;;;;;;;9.47;5.00;;;9.60;99.90;;;;;;5053522;28;20169;-84
2023/03/18 07:20:37;;;;;;;7.53;3.33;;;10.00;99.90;;;;;;5052239;28;20668;-82
2023/03/18 07:23:03;;;;;;;3.50;2.20;;;10.40;99.90;;;;;;5051825;28;20197;-87
2023/03/18 07:25:30;;;;;;;2.87;2.00;;;10.50;99.90;;;;;;5053312;28;20174;-87
2023/03/18 07:27:56;;;;;;;3.40;2.00;;;10.40;99.90;;;;;;5053404;28;20174;-88
2023/03/18 07:30:22;;;;;;;3.70;2.07;;;10.40;99.90;;;;;;5051406;28;20192;-88
2023/03/18 07:32:48;;;;;;;4.70;2.03;;;10.30;99.90;;;;;;5052919;28;20648;-85
2023/03/18 07:35:14;;;;;;;3.20;1.80;;;10.40;99.90;;;;;;5052661;28;20169;-88
2023/03/18 07:37:40;;;;;;;3.53;2.17;;;10.40;99.90;;;;;;5052416;28;20719;-88
2023/03/18 07:40:07;;;;;;;5.10;2.20;;;10.40;99.90;;;;;;5052494;28;20173;-88
2023/03/18 07:42:33;;;;;;;2.67;1.87;;;10.40;99.90;;;;;;5052267;28;20201;-89
2023/03/18 07:44:59;;;;;;;3.53;2.03;;;10.50;99.90;;;;;;5052484;28;20320;-89
2023/03/18 07:47:24;;;;;;;3.30;1.97;;;10.50;99.90;;;;;;5053100;28;20195;-85
2023/03/18 07:49:53;;;;;;;3.37;1.80;;;10.60;99.90;;;;;;5051824;28;20174;-87
2023/03/18 07:52:19;;;;;;;3.47;1.70;;;10.60;99.90;;;;;;5052316;28;20177;-85
2023/03/18 07:54:44;;;;;;;2.73;2.00;;;10.70;99.90;;;;;;5052379;28;20216;-86
2023/03/18 07:57:10;;;;;;;2.43;1.80;;;10.70;99.90;;;;;;5053868;28;20204;-85
2023/03/18 07:59:39;;;;;;;3.17;2.10;;;10.80;99.90;;;;;;5052098;28;20264;-80
2023/03/18 08:02:06;;;;;;;6.13;2.20;;;10.90;99.90;;;;;;5051711;28;20206;-82
2023/03/18 08:04:34;;;;;;;2.83;2.10;;;10.90;99.90;;;;;;5051949;28;20703;-86
2023/03/18 08:07:00;;;;;;;3.17;2.10;;;10.90;99.90;;;;;;5053431;28;20216;-86
2023/03/18 08:09:26;;;;;;;4.10;2.40;;;10.90;99.90;;;;;;5053544;28;20569;-86
2023/03/18 08:11:52;;;;;;;3.00;2.10;;;10.90;99.90;;;;;;5051130;28;20223;-86
2023/03/18 08:14:18;;;;;;;3.63;2.40;;;10.90;99.90;;;;;;5051705;28;20188;-86
2023/03/18 08:16:44;;;;;;;4.23;2.23;;;11.00;99.90;;;;;;5052845;28;20203;-86
2023/03/18 08:19:09;;;;;;;3.10;1.97;;;11.00;99.90;;;;;;5051753;28;20189;-85
2023/03/18 08:21:35;;;;;;;4.77;2.60;;;11.10;99.90;;;;;;5051040;28;20615;-87
2023/03/18 08:24:01;;;;;;;3.23;2.10;;;11.20;99.90;;;;;;5053316;28;20235;-86
2023/03/18 08:26:27;;;;;;;4.80;2.70;;;11.20;99.90;;;;;;5050582;28;20194;-86
2023/03/18 08:28:53;;;;;;;5.00;2.17;;;11.30;99.90;;;;;;5051626;28;20189;-86
2023/03/18 08:31:18;;;;;;;3.97;2.40;;;11.40;99.90;;;;;;5052485;28;20169;-86
2023/03/18 08:33:45;;;;;;;2.83;2.10;;;11.50;99.90;;;;;;5051449;28;20188;-86
2023/03/18 08:36:11;;;;;;;3.73;2.30;;;11.60;99.90;;;;;;5075652;22;20307;-83
2023/03/18 08:38:36;;;;;;;2.77;1.83;;;11.60;99.90;;;;;;5051775;28;20186;-83
2023/03/18 08:41:02;;;;;;;2.83;2.10;;;11.60;99.90;;;;;;5051420;28;20177;-83
2023/03/18 08:43:28;;;;;;;4.37;2.20;;;11.70;99.90;;;;;;5051669;28;20263;-85
2023/03/18 08:45:54;;;;;;;2.83;2.00;;;12.00;99.90;;;;;;5050553;28;20200;-82
2023/03/18 08:48:21;;;;;;;3.73;1.90;;;12.20;99.90;;;;;;5051708;28;20267;-82
2023/03/18 08:50:47;;;;;;;2.87;1.93;;;12.30;99.90;;;;;;5052108;28;20211;-82
2023/03/18 08:53:14;;;;;;;2.83;2.20;;;12.40;99.90;;;;;;5050446;28;20178;-83
2023/03/18 08:55:40;;;;;;;3.50;1.83;;;12.60;99.90;;;;;;5051734;28;20211;-83
2023/03/18 08:58:07;;;;;;;4.77;2.00;;;12.80;99.90;;;;;;5050545;28;20193;-83
2023/03/18 09:00:35;;;;;;;3.40;1.90;;;12.90;99.90;;;;;;5050201;28;20173;-83
2023/03/18 09:03:01;;;;;;;3.10;1.93;;;13.00;99.90;;;;;;5050615;28;20190;-84
2023/03/18 09:05:27;;;;;;;2.93;1.87;;;13.10;99.90;;;;;;5050249;28;20166;-83
2023/03/18 09:07:52;;;;;;;3.77;1.80;;;13.20;99.90;;;;;;5050821;28;20192;-82
2023/03/18 09:10:18;;;;;;;3.30;2.00;;;13.40;99.90;;;;;;5052046;28;20166;-80
2023/03/18 09:12:45;;;;;;;2.57;1.87;;;13.50;99.90;;;;;;5052640;28;20640;-80
2023/03/18 09:15:13;;;;;;;2.70;1.73;;;13.50;99.90;;;;;;5051297;28;20178;-81
2023/03/18 09:17:39;;;;;;;5.43;1.93;;;13.60;99.90;;;;;;5051603;28;20217;-80
2023/03/18 09:20:10;;;;;;;4.00;1.80;;;13.80;99.90;;;;;;5052948;28;20184;-80
2023/03/18 09:22:37;;;;;;;2.87;1.90;;;13.90;99.90;;;;;;5051552;28;20201;-80
2023/03/18 09:25:03;;;;;;;1.97;1.73;;;14.00;99.90;;;;;;5051630;28;20260;-80
2023/03/18 09:27:29;;;;;;;5.70;2.03;;;14.10;99.90;;;;;;5051670;28;20224;-80
2023/03/18 09:29:55;;;;;;;5.57;2.20;;;14.20;99.90;;;;;;5052588;28;20173;-80
2023/03/18 09:32:21;;;;;;;3.30;2.17;;;14.40;99.90;;;;;;5055787;28;20217;-80
2023/03/18 09:34:47;;;;;;;3.77;2.00;;;14.40;99.90;;;;;;5053325;28;20183;-80
2023/03/18 09:37:13;;;;;;;4.83;2.30;;;14.60;99.90;;;;;;5055814;28;20209;-80
2023/03/18 09:39:40;;;;;;;3.57;2.30;;;14.70;99.70;;;;;;5054662;28;20173;-80
2023/03/18 09:42:20;;;;;;;3.77;2.17;;;15.00;99.90;;;;;;5054503;28;20208;-80
2023/03/18 09:44:55;;;;;;;5.47;2.13;;;15.20;95.00;;;;;;5055068;28;20173;-80
2023/03/18 09:47:38;;;;;;;4.03;2.10;;;15.30;92.70;;;;;;5054575;28;20196;-82
2023/03/18 09:50:26;;;;;;;3.83;2.20;;;15.20;93.00;;;;;;5055718;28;20169;-80
2023/03/18 09:53:10;;;;;;;4.30;1.80;;;15.20;92.50;;;;;;5055565;28;20177;-80
2023/03/18 09:55:45;;;;;;;3.57;2.43;;;15.00;91.50;;;;;;5054602;28;20170;-80
2023/03/18 09:58:24;;;;;;;4.17;2.30;;;15.00;90.70;;;;;;5055618;28;20169;-83
2023/03/18 10:00:56;;;;;;;4.20;2.13;;;15.00;92.00;;;;;;5053995;28;20174;-80
2023/03/18 10:03:46;;;;;;;3.63;2.07;;;14.90;90.50;;;;;;5054475;28;20625;-80
2023/03/18 10:06:17;;;;;;;3.57;1.90;;;14.80;92.80;;;;;;5054318;28;20235;-80
2023/03/18 10:08:55;;;;;;;4.63;2.03;;;15.00;92.90;;;;;;5055446;28;20220;-80
2023/03/18 10:11:33;;;;;;;2.77;2.00;;;15.10;93.70;;;;;;5054930;28;20176;-80
2023/03/18 10:14:32;;;;;;;3.40;1.90;;;15.10;95.80;;;;;;5055491;28;20201;-80
2023/03/18 10:17:16;;;;;;;3.53;1.83;;;14.90;92.40;;;;;;5054086;28;20208;-80
2023/03/18 10:19:56;;;;;;;2.83;2.20;;;14.80;95.80;;;;;;5054652;28;20227;-82
2023/03/18 10:22:40;;;;;;;2.43;1.90;;;15.00;97.70;;;;;;5053849;28;20209;-80
2023/03/18 10:25:20;;;;;;;4.90;1.87;;;15.10;96.10;;;;;;5053761;28;20166;-83
2023/03/18 10:28:17;;;;;;;3.27;1.90;;;15.20;94.00;;;;;;5053583;28;20672;-80
2023/03/18 10:31:05;;;;;;;5.07;2.20;;;15.20;91.90;;;;;;5040037;28;20181;-80
2023/03/18 10:33:45;;;;;;;2.70;1.90;;;15.20;92.90;;;;;;5054672;28;20165;-80
2023/03/18 10:36:24;;;;;;;3.77;1.97;;;15.10;93.20;;;;;;5054553;28;20255;-82
2023/03/18 10:38:53;;;;;;;2.97;1.90;;;15.00;93.00;;;;;;5053516;28;20180;-80
2023/03/18 10:41:20;;;;;;;4.33;2.20;;;15.00;94.20;;;;;;5054367;28;20644;-80
2023/03/18 10:43:48;;;;;;;3.40;1.90;;;15.00;95.20;;;;;;5052899;28;20225;-81
2023/03/18 10:46:17;;;;;;;2.30;1.67;;;15.00;96.90;;;;;;5054309;28;20194;-82
2023/03/18 10:48:50;;;;;;;4.77;2.00;;;15.00;93.30;;;;;;5053039;28;20523;-79
2023/03/18 10:51:44;;;;;;;3.00;1.70;;;14.80;92.50;;;;;;5052409;28;20174;-81
2023/03/18 10:54:20;;;;;;;3.77;2.67;;;15.20;93.80;;;;;;5052732;28;20170;-83
2023/03/18 10:56:46;;;;;;;4.50;2.20;;;15.60;91.40;;;;;;5053510;28;20203;-84
2023/03/18 10:59:17;;;;;;;5.43;2.00;;;15.90;89.20;;;;;;5050393;28;20182;-81
2023/03/18 11:01:50;;;;;;;2.93;1.80;;;15.90;85.90;;;;;;5069294;28;20197;-82
2023/03/18 11:04:20;;;;;;;3.93;2.07;;;15.90;86.20;;;;;;5052740;28;20177;-81
2023/03/18 11:06:57;;;;;;;3.50;1.83;;;15.80;83.20;;;;;;5053548;28;20189;-82
2023/03/18 11:09:35;;;;;;;4.60;1.90;;;16.00;88.00;;;;;;5052433;28;20205;-85
2023/03/18 11:12:17;;;;;;;3.13;1.80;;;16.30;86.30;;;;;;5051874;28;20246;-84
2023/03/18 11:14:50;;;;;;;3.97;1.97;;;16.50;83.00;;;;;;5051974;28;20180;-84
2023/03/18 11:17:22;;;;;;;3.27;1.90;;;16.50;77.80;;;;;;5052752;28;20254;-83
2023/03/18 11:19:58;;;;;;;3.47;1.80;;;16.30;74.30;;;;;;5052021;28;20197;-80
2023/03/18 11:22:24;;;;;;;3.40;1.90;;;16.60;82.80;;;;;;5052643;28;20255;-84
2023/03/18 11:25:11;;;;;;;4.77;2.07;;;16.90;85.40;;;;;;5052931;28;20166;-81
2023/03/18 11:27:44;;;;;;;1.97;1.70;;;17.30;81.40;;;;;;5052186;28;20185;-82
2023/03/18 11:30:27;;;;;;;2.27;1.77;;;17.40;75.40;;;;;;5052792;28;20261;-82
2023/03/18 11:33:10;;;;;;;2.80;1.80;;;17.50;73.90;;;;;;5053222;28;20165;-83
2023/03/18 11:35:39;;;;;;;3.90;2.00;;;17.60;71.70;;;;;;5053145;28;20232;-83
2023/03/18 11:38:12;;;;;;;4.83;1.80;;;17.70;68.80;;;;;;5052823;28;20283;-84
2023/03/18 11:40:39;;;;;;;5.83;1.87;;;17.60;66.40;;;;;;5051702;28;20216;-83
2023/03/18 11:43:20;;;;;;;4.47;1.70;;;17.30;70.60;;;;;;5051923;28;20244;-82
2023/03/18 11:45:56;;;;;;;3.23;1.80;;;17.50;69.30;;;;;;5051685;28;20227;-82
2023/03/18 11:48:29;;;;;;;2.13;1.50;;;17.70;72.30;;;;;;5053142;28;20149;-83
2023/03/18 11:51:15;;;;;;;3.47;1.90;;;17.90;72.50;;;;;;5051838;28;20514;-83
2023/03/18 11:53:50;;;;;;;1.97;1.50;;;17.60;65.90;;;;;;5051629;28;20173;-85
2023/03/18 11:56:23;;;;;;;3.30;1.73;;;17.50;70.10;;;;;;5052317;28;20198;-81
2023/03/18 11:59:16;;;;;;;3.27;1.50;;;17.50;71.70;;;;;;5055074;28;20199;-82
2023/03/18 12:01:47;;;;;;;2.70;1.63;;;17.70;71.80;;;;;;5056437;28;20201;-81
2023/03/18 12:04:36;;;;;;;3.17;1.70;;;17.70;75.10;;;;;;5057101;28;20173;-81
2023/03/18 12:07:20;;;;;;;4.70;1.80;;;18.10;68.40;;;;;;5056599;28;20189;-81
2023/03/18 12:10:04;;;;;;;2.77;1.50;;;18.20;64.50;;;;;;5057266;28;20203;-81
2023/03/18 12:12:42;;;;;;;3.27;1.60;;;18.20;59.60;;;;;;5056612;28;20197;-81
2023/03/18 12:15:17;;;;;;;3.87;1.70;;;18.40;66.50;;;;;;5058187;28;20168;-81
2023/03/18 12:17:58;;;;;;;2.73;1.63;;;18.70;62.00;;;;;;5058328;28;20196;-81
2023/03/18 12:20:42;;;;;;;2.80;1.60;;;18.80;59.80;;;;;;5057573;28;20617;-81
2023/03/18 12:23:26;;;;;;;3.30;1.70;;;18.80;53.80;;;;;;5058050;28;20181;-81
2023/03/18 12:26:04;;;;;;;2.80;2.00;;;18.70;55.40;;;;;;5056719;28;20158;-81
2023/03/18 12:28:54;;;;;;;2.30;1.63;;;19.00;55.80;;;;;;5057139;28;20165;-80
2023/03/18 12:31:49;;;;;;;3.17;1.60;;;19.10;52.70;;;;;;5057651;28;20146;-81
2023/03/18 12:34:32;;;;;;;2.30;1.70;;;19.00;53.40;;;;;;5058193;28;20233;-81
2023/03/18 12:37:31;;;;;;;2.67;1.50;;;19.20;51.80;;;;;;5056305;28;20205;-89
2023/03/18 12:40:06;;;;;;;2.87;1.87;;;19.40;56.00;;;;;;5054280;28;20158;-83
2023/03/18 12:42:47;;;;;;;3.90;1.90;;;19.60;47.10;;;;;;5050869;28;20197;-83
2023/03/18 12:45:19;;;;;;;2.57;1.53;;;19.60;50.10;;;;;;5052515;28;20158;-83
2023/03/18 12:47:51;;;;;;;5.13;1.50;;;19.60;44.30;;;;;;5050882;28;20189;-83
2023/03/18 12:50:18;;;;;;;2.20;1.52;;;19.60;46.40;;;;;;5052297;28;20166;-83
2023/03/18 12:52:55;;;;;;;3.10;1.45;;;19.80;43.30;;;;;;5050977;28;20323;-83
2023/03/18 12:55:30;;;;;;;1.90;1.60;;;19.60;45.20;;;;;;5052289;28;20165;-83
2023/03/18 12:57:59;;;;;;;3.00;1.40;;;19.70;45.70;;;;;;5051845;28;20221;-83
2023/03/18 13:00:40;;;;;;;2.58;1.88;;;20.10;44.60;;;;;;5050550;28;20200;-84
2023/03/18 13:03:32;;;;;;;2.85;1.80;;;19.80;46.00;;;;;;5050726;28;20571;-84
2023/03/18 13:06:25;;;;;;;3.47;1.83;;;19.90;44.30;;;;;;5055348;28;20162;-83